Time;durP1;ratioP1;P1;durP2;ratioP2;P2;SDS_P1;SDS_P2;PMS_P1;PMS_P2;Temp;Humidity;BMP_temperature;BMP_pressure;BME280_temperature;BME280_humidity;BME280_pressure;Samples;Min_cycle;Max_cycle;Signal;HPM_P1;HPM_P2
2024/02/05 00:01:41;;;;;;;1.63;1.38;;;6.90;99.90;;;;;;4932669;29;20520;-78
2024/02/05 00:04:07;;;;;;;1.83;1.73;;;6.90;99.90;;;;;;4935685;29;20071;-77
2024/02/05 00:06:32;;;;;;;1.23;1.13;;;6.90;99.90;;;;;;4933873;29;20070;-77
2024/02/05 00:08:58;;;;;;;1.88;1.58;;;6.90;99.90;;;;;;4933506;29;20468;-78
2024/02/05 00:11:24;;;;;;;1.30;1.20;;;6.90;99.90;;;;;;4935100;29;20384;-78
2024/02/05 00:13:50;;;;;;;2.15;1.55;;;6.90;99.90;;;;;;4934548;29;20036;-77
2024/02/05 00:16:16;;;;;;;1.67;1.17;;;7.00;99.90;;;;;;4932734;29;20437;-78
2024/02/05 00:18:42;;;;;;;1.33;1.23;;;6.90;99.90;;;;;;4950256;28;20685;-77
2024/02/05 00:21:07;;;;;;;1.25;1.20;;;7.00;99.90;;;;;;4933958;29;20110;-78
2024/02/05 00:23:34;;;;;;;1.35;1.15;;;7.00;99.90;;;;;;4934099;29;20039;-78
2024/02/05 00:26:00;;;;;;;1.10;1.00;;;7.00;99.90;;;;;;4935157;29;20444;-78
2024/02/05 00:28:25;;;;;;;1.15;1.05;;;7.00;99.90;;;;;;4934418;29;20047;-77
2024/02/05 00:30:51;;;;;;;1.20;1.10;;;7.00;99.90;;;;;;4935027;29;20056;-77
2024/02/05 00:33:17;;;;;;;1.15;1.05;;;7.00;99.90;;;;;;4940121;29;20111;-77
2024/02/05 00:35:43;;;;;;;1.30;1.05;;;7.00;99.90;;;;;;4934169;29;20038;-77
2024/02/05 00:38:08;;;;;;;1.42;1.00;;;7.00;99.90;;;;;;4936030;29;20186;-77
2024/02/05 00:40:34;;;;;;;0.82;0.82;;;7.00;99.90;;;;;;4966347;28;20039;-77
2024/02/05 00:43:00;;;;;;;1.08;1.08;;;7.00;99.90;;;;;;4935446;29;20040;-78
2024/02/05 00:45:26;;;;;;;1.65;1.05;;;7.00;99.90;;;;;;4935211;29;20042;-78
2024/02/05 00:47:52;;;;;;;2.15;1.10;;;7.00;99.90;;;;;;4935454;29;20034;-77
2024/02/05 00:50:18;;;;;;;0.98;0.90;;;7.00;99.90;;;;;;4934504;29;20042;-78
2024/02/05 00:52:44;;;;;;;0.80;0.80;;;6.90;99.90;;;;;;4935316;29;20107;-77
2024/02/05 00:55:10;;;;;;;0.80;0.80;;;7.00;99.90;;;;;;4932952;29;20075;-77
2024/02/05 00:57:36;;;;;;;0.90;0.90;;;6.90;99.90;;;;;;4935092;29;20504;-77
2024/02/05 01:00:07;;;;;;;0.90;0.90;;;6.90;99.90;;;;;;4935274;29;20066;-77
2024/02/05 01:02:34;;;;;;;1.02;0.90;;;6.90;99.90;;;;;;4949814;28;20047;-77
2024/02/05 01:05:00;;;;;;;2.75;1.08;;;6.90;99.90;;;;;;4965974;28;20050;-77
2024/02/05 01:07:26;;;;;;;0.75;0.75;;;6.90;99.90;;;;;;4933462;29;20044;-77
2024/02/05 01:09:52;;;;;;;1.05;0.95;;;6.90;99.90;;;;;;4965163;28;20492;-78
2024/02/05 01:12:18;;;;;;;1.05;0.73;;;7.00;99.90;;;;;;4935014;29;20476;-78
2024/02/05 01:14:44;;;;;;;0.90;0.90;;;7.00;99.90;;;;;;4931207;29;20119;-77
2024/02/05 01:17:10;;;;;;;0.80;0.80;;;6.90;99.90;;;;;;4933740;29;20034;-78
2024/02/05 01:19:36;;;;;;;0.77;0.77;;;6.90;99.90;;;;;;4954728;28;20110;-78
2024/02/05 01:22:02;;;;;;;0.60;0.60;;;6.90;99.90;;;;;;4931382;29;20028;-78
2024/02/05 01:24:27;;;;;;;0.82;0.82;;;6.90;99.90;;;;;;4932000;29;20039;-77
2024/02/05 01:26:53;;;;;;;1.00;0.77;;;6.90;99.90;;;;;;4966145;28;20171;-78
2024/02/05 01:29:19;;;;;;;1.15;0.68;;;6.90;99.90;;;;;;4937289;29;20396;-77
2024/02/05 01:31:45;;;;;;;0.57;0.57;;;6.90;99.90;;;;;;4933783;29;20028;-77
2024/02/05 01:34:10;;;;;;;0.80;0.80;;;6.90;99.90;;;;;;4962838;28;20051;-77
2024/02/05 01:36:36;;;;;;;1.10;0.70;;;6.80;99.90;;;;;;4965193;28;20441;-78
2024/02/05 01:39:02;;;;;;;1.73;0.60;;;6.80;99.90;;;;;;4933833;29;20488;-77
2024/02/05 01:41:28;;;;;;;0.80;0.80;;;6.90;99.90;;;;;;4940252;28;20038;-78
2024/02/05 01:43:54;;;;;;;0.88;0.70;;;6.90;99.90;;;;;;4935003;29;20036;-78
2024/02/05 01:46:22;;;;;;;1.25;0.80;;;6.80;99.90;;;;;;4934224;29;20552;-78
2024/02/05 01:48:54;;;;;;;1.00;0.90;;;6.90;99.90;;;;;;4932785;29;20040;-78
2024/02/05 01:51:22;;;;;;;0.70;0.70;;;6.90;99.90;;;;;;4927648;29;20496;-77
2024/02/05 01:53:51;;;;;;;0.80;0.70;;;6.80;99.90;;;;;;4966624;28;20023;-78
2024/02/05 01:56:17;;;;;;;1.70;0.60;;;6.90;99.90;;;;;;4933392;29;20067;-77
2024/02/05 01:58:43;;;;;;;0.70;0.60;;;6.80;99.90;;;;;;4967562;28;20039;-77
2024/02/05 02:01:10;;;;;;;0.60;0.60;;;6.80;99.90;;;;;;4962560;28;20460;-78
2024/02/05 02:03:43;;;;;;;1.85;0.57;;;6.80;99.90;;;;;;4963556;28;20386;-78
2024/02/05 02:06:10;;;;;;;0.45;0.45;;;6.80;99.90;;;;;;4932478;29;20110;-78
2024/02/05 02:08:38;;;;;;;0.30;0.30;;;6.80;99.90;;;;;;4942613;29;20050;-77
2024/02/05 02:11:04;;;;;;;2.47;0.47;;;6.80;99.90;;;;;;4940071;28;20036;-78
2024/02/05 02:13:34;;;;;;;0.43;0.43;;;6.80;99.90;;;;;;4940328;29;20428;-78
2024/02/05 02:16:07;;;;;;;0.30;0.30;;;6.90;99.90;;;;;;4937108;29;20042;-78
2024/02/05 02:18:35;;;;;;;0.60;0.45;;;6.80;99.90;;;;;;4938698;29;20391;-78
2024/02/05 02:21:02;;;;;;;0.40;0.40;;;6.80;99.90;;;;;;4941203;29;20040;-78
2024/02/05 02:23:33;;;;;;;0.30;0.22;;;6.80;99.90;;;;;;4965515;28;20106;-78
2024/02/05 02:26:03;;;;;;;0.22;0.22;;;6.80;99.90;;;;;;4946985;28;20043;-77
2024/02/05 02:28:28;;;;;;;0.70;0.30;;;6.80;99.90;;;;;;4934758;29;20036;-78
2024/02/05 02:30:56;;;;;;;0.40;0.40;;;6.80;99.90;;;;;;4965180;28;20043;-77
2024/02/05 02:33:55;;;;;;;0.40;0.40;;;6.80;99.90;;;;;;4933605;29;20019;-78
2024/02/05 02:36:34;;;;;;;0.65;0.30;;;6.80;99.90;;;;;;4934662;28;20073;-77
2024/02/05 02:39:25;;;;;;;1.15;0.47;;;6.80;99.90;;;;;;4938812;29;20091;-77
2024/02/05 02:41:54;;;;;;;0.47;0.47;;;6.80;99.90;;;;;;4940791;28;20044;-77
2024/02/05 02:44:24;;;;;;;0.50;0.30;;;6.80;99.90;;;;;;4943036;28;20032;-78
2024/02/05 02:46:52;;;;;;;0.32;0.30;;;6.80;99.90;;;;;;4931792;29;20024;-77
2024/02/05 02:49:18;;;;;;;0.75;0.65;;;6.80;99.90;;;;;;4972102;28;20019;-77
2024/02/05 02:51:43;;;;;;;0.40;0.35;;;6.80;99.90;;;;;;4945982;28;20445;-77
2024/02/05 02:54:09;;;;;;;0.40;0.40;;;6.80;99.90;;;;;;4934642;29;20035;-78
2024/02/05 02:56:35;;;;;;;2.80;0.30;;;6.70;99.90;;;;;;4939698;28;20533;-77
2024/02/05 02:59:01;;;;;;;0.30;0.30;;;6.70;99.90;;;;;;4933611;29;20044;-78
2024/02/05 03:01:26;;;;;;;0.30;0.30;;;6.70;99.90;;;;;;4934491;29;20063;-77
2024/02/05 03:03:52;;;;;;;0.95;0.40;;;6.80;99.90;;;;;;4967708;28;20477;-77
2024/02/05 03:06:18;;;;;;;0.63;0.30;;;6.80;99.90;;;;;;4968036;28;20039;-78
2024/02/05 03:08:43;;;;;;;0.57;0.30;;;6.90;99.90;;;;;;4964215;28;20059;-77
2024/02/05 03:11:09;;;;;;;0.40;0.40;;;6.80;99.90;;;;;;4933136;29;20087;-78
2024/02/05 03:13:35;;;;;;;0.40;0.40;;;6.80;99.90;;;;;;4942202;29;20075;-78
2024/02/05 03:16:01;;;;;;;0.40;0.30;;;6.80;99.90;;;;;;4920285;29;20047;-78
2024/02/05 03:18:26;;;;;;;0.40;0.40;;;6.80;99.90;;;;;;4964006;28;20028;-77
2024/02/05 03:20:52;;;;;;;0.30;0.30;;;6.70;99.90;;;;;;4941879;28;20426;-77
2024/02/05 03:23:18;;;;;;;0.40;0.40;;;6.80;99.90;;;;;;4941576;29;20035;-77
2024/02/05 03:25:44;;;;;;;0.47;0.40;;;6.80;99.90;;;;;;4933935;29;20032;-77
2024/02/05 03:28:09;;;;;;;0.45;0.45;;;6.80;99.90;;;;;;4935693;29;20040;-77
2024/02/05 03:30:36;;;;;;;0.35;0.35;;;6.80;99.90;;;;;;4935884;29;20027;-78
2024/02/05 03:33:03;;;;;;;0.20;0.20;;;6.80;99.90;;;;;;4940442;28;20126;-77
2024/02/05 03:35:29;;;;;;;0.30;0.30;;;6.80;99.90;;;;;;4931002;29;21468;-77
2024/02/05 03:37:55;;;;;;;0.35;0.35;;;6.80;99.90;;;;;;4965413;28;20087;-77
2024/02/05 03:40:22;;;;;;;1.00;0.43;;;6.80;99.90;;;;;;4956083;28;20032;-77
2024/02/05 03:42:52;;;;;;;0.50;0.43;;;6.80;99.90;;;;;;4934425;29;20024;-77
2024/02/05 03:45:18;;;;;;;0.70;0.43;;;6.70;99.90;;;;;;4966804;28;20047;-78
2024/02/05 03:47:44;;;;;;;0.40;0.40;;;6.70;99.90;;;;;;4943361;29;20095;-77
2024/02/05 03:50:11;;;;;;;0.38;0.38;;;6.70;99.90;;;;;;4926748;29;20035;-78
2024/02/05 03:52:39;;;;;;;0.40;0.40;;;6.70;99.90;;;;;;4955958;28;20126;-78
2024/02/05 03:55:05;;;;;;;0.30;0.30;;;6.70;99.90;;;;;;4937061;29;20054;-78
2024/02/05 03:57:32;;;;;;;0.40;0.40;;;6.70;99.90;;;;;;4938756;29;20112;-78
2024/02/05 04:00:01;;;;;;;0.55;0.40;;;6.70;99.90;;;;;;4937571;29;20036;-77
2024/02/05 04:02:29;;;;;;;0.30;0.30;;;6.70;99.90;;;;;;4951670;28;20392;-78
2024/02/05 04:04:57;;;;;;;1.65;0.45;;;6.70;99.90;;;;;;4937025;29;20032;-78
2024/02/05 04:07:23;;;;;;;0.30;0.30;;;6.70;99.90;;;;;;4957261;28;20123;-77
2024/02/05 04:09:49;;;;;;;0.30;0.30;;;6.70;99.90;;;;;;4940786;29;20036;-78
2024/02/05 04:12:15;;;;;;;0.50;0.50;;;6.60;99.90;;;;;;4940899;28;20035;-78
2024/02/05 04:14:41;;;;;;;0.50;0.50;;;6.70;99.90;;;;;;4935982;29;20043;-77
2024/02/05 04:17:10;;;;;;;0.40;0.40;;;6.60;99.90;;;;;;4940217;29;20106;-78
2024/02/05 04:19:36;;;;;;;0.40;0.40;;;6.70;99.90;;;;;;4939186;29;20175;-78
2024/02/05 04:22:02;;;;;;;0.47;0.47;;;6.60;99.90;;;;;;4935195;29;20091;-77
2024/02/05 04:24:28;;;;;;;0.45;0.45;;;6.60;99.90;;;;;;4936160;29;20573;-77
2024/02/05 04:26:54;;;;;;;2.47;0.50;;;6.60;99.90;;;;;;4935371;29;20035;-78
2024/02/05 04:29:40;;;;;;;0.63;0.63;;;6.60;99.90;;;;;;4935753;29;20122;-77
2024/02/05 04:32:06;;;;;;;0.85;0.70;;;6.60;99.90;;;;;;4933475;29;20329;-78
2024/02/05 04:34:31;;;;;;;0.63;0.63;;;6.60;99.90;;;;;;4935959;29;20058;-78
2024/02/05 04:36:57;;;;;;;0.70;0.70;;;6.70;99.90;;;;;;4933930;29;20027;-77
2024/02/05 04:39:23;;;;;;;0.68;0.68;;;6.60;99.90;;;;;;4935939;29;20039;-78
2024/02/05 04:41:49;;;;;;;1.10;1.00;;;6.60;99.90;;;;;;4937483;28;20083;-77
2024/02/05 04:44:16;;;;;;;1.00;0.85;;;6.60;99.90;;;;;;4945886;29;20135;-77
2024/02/05 04:46:41;;;;;;;2.40;0.93;;;6.60;99.90;;;;;;4933981;29;20052;-78
2024/02/05 04:49:07;;;;;;;1.20;1.10;;;6.60;99.90;;;;;;4935323;29;20408;-78
2024/02/05 04:51:33;;;;;;;1.25;1.00;;;6.60;99.90;;;;;;4935335;28;20123;-77
2024/02/05 04:53:59;;;;;;;1.10;1.00;;;6.60;99.90;;;;;;4949821;28;20031;-77
2024/02/05 04:56:25;;;;;;;1.45;1.10;;;6.60;99.90;;;;;;4965542;28;20039;-79
2024/02/05 04:58:51;;;;;;;0.77;0.77;;;6.60;99.90;;;;;;4966571;28;20050;-78
2024/02/05 05:01:17;;;;;;;0.98;0.98;;;6.60;99.90;;;;;;4935910;29;20035;-78
2024/02/05 05:03:43;;;;;;;1.52;1.05;;;6.60;99.90;;;;;;4935720;29;20035;-78
2024/02/05 05:06:08;;;;;;;1.35;1.05;;;6.60;99.90;;;;;;4935826;29;20032;-78
2024/02/05 05:08:34;;;;;;;1.30;1.20;;;6.60;99.90;;;;;;4941788;29;20114;-78
2024/02/05 05:11:01;;;;;;;1.08;1.08;;;6.60;99.90;;;;;;4938783;28;20040;-78
2024/02/05 05:13:26;;;;;;;1.42;1.30;;;6.60;99.90;;;;;;4941008;28;20027;-78
2024/02/05 05:15:55;;;;;;;1.35;1.25;;;6.60;99.90;;;;;;4934905;29;20028;-78
2024/02/05 05:18:21;;;;;;;1.40;1.30;;;6.60;99.90;;;;;;4934752;29;20024;-78
2024/02/05 05:20:47;;;;;;;1.75;1.00;;;6.60;99.90;;;;;;4934829;29;20050;-78
2024/02/05 05:23:15;;;;;;;2.40;1.15;;;6.60;99.90;;;;;;4934188;29;20734;-78
2024/02/05 05:25:41;;;;;;;1.38;1.10;;;6.50;99.90;;;;;;4935126;29;20396;-78
2024/02/05 05:28:07;;;;;;;1.30;1.20;;;6.60;99.90;;;;;;4939520;29;20032;-78
2024/02/05 05:30:34;;;;;;;1.30;1.20;;;6.60;99.90;;;;;;4935203;29;20040;-78
2024/02/05 05:32:59;;;;;;;1.60;1.45;;;6.60;99.90;;;;;;4967841;28;20036;-78
2024/02/05 05:35:25;;;;;;;1.27;1.20;;;6.60;99.90;;;;;;4936390;29;20027;-78
2024/02/05 05:37:51;;;;;;;1.63;1.30;;;6.60;99.90;;;;;;4935546;29;20063;-78
2024/02/05 05:40:17;;;;;;;2.17;1.20;;;6.60;99.90;;;;;;4941123;28;20116;-78
2024/02/05 05:42:42;;;;;;;1.55;1.45;;;6.50;99.90;;;;;;4938962;28;20392;-78
2024/02/05 05:45:08;;;;;;;2.33;1.60;;;6.50;99.90;;;;;;4932486;29;20078;-78
2024/02/05 05:47:34;;;;;;;1.38;1.27;;;6.50;99.90;;;;;;4933491;29;20115;-78
2024/02/05 05:50:00;;;;;;;2.22;1.50;;;6.50;99.90;;;;;;4962500;28;20085;-77
2024/02/05 05:52:27;;;;;;;1.80;1.23;;;6.50;99.90;;;;;;4930366;29;21145;-78
2024/02/05 05:54:54;;;;;;;2.33;1.50;;;6.50;99.90;;;;;;4933607;29;20133;-78
2024/02/05 05:57:19;;;;;;;1.35;1.25;;;6.50;99.90;;;;;;4932604;29;20032;-79
2024/02/05 05:59:45;;;;;;;1.35;1.25;;;6.50;99.90;;;;;;4961743;28;20393;-78
2024/02/05 06:02:11;;;;;;;2.13;1.90;;;6.50;99.90;;;;;;4929015;29;20100;-78
2024/02/05 06:04:39;;;;;;;1.50;1.40;;;6.50;99.90;;;;;;4930833;29;20024;-78
2024/02/05 06:07:06;;;;;;;2.03;1.55;;;6.50;99.90;;;;;;4931935;29;20028;-78
2024/02/05 06:09:35;;;;;;;1.40;1.30;;;6.50;99.90;;;;;;4936038;29;20539;-78
2024/02/05 06:12:04;;;;;;;3.03;1.48;;;6.50;99.90;;;;;;4934157;29;20031;-79
2024/02/05 06:14:31;;;;;;;1.63;1.52;;;6.50;99.90;;;;;;4969095;28;20036;-78
2024/02/05 06:16:57;;;;;;;2.70;1.90;;;6.50;99.90;;;;;;4947485;28;20515;-78
2024/02/05 06:19:23;;;;;;;2.88;1.50;;;6.50;99.90;;;;;;4933008;29;20036;-78
2024/02/05 06:21:49;;;;;;;1.67;1.58;;;6.50;99.90;;;;;;4963643;28;20106;-77
2024/02/05 06:24:15;;;;;;;1.50;1.40;;;6.50;99.90;;;;;;4932093;29;20408;-78
2024/02/05 06:26:41;;;;;;;2.97;1.75;;;6.50;99.90;;;;;;4962923;28;20039;-78
2024/02/05 06:29:07;;;;;;;2.65;1.90;;;6.50;99.90;;;;;;4931105;29;20040;-78
2024/02/05 06:31:34;;;;;;;2.25;1.83;;;6.50;99.90;;;;;;4931960;29;20086;-78
2024/02/05 06:33:59;;;;;;;3.75;1.60;;;6.50;99.90;;;;;;4967997;28;20039;-78
2024/02/05 06:36:25;;;;;;;3.00;1.55;;;6.50;99.90;;;;;;4933155;29;20035;-78
2024/02/05 06:38:51;;;;;;;3.60;1.52;;;6.50;99.90;;;;;;4932915;29;20032;-78
2024/02/05 06:41:17;;;;;;;1.55;1.40;;;6.50;99.90;;;;;;4933317;29;20031;-78
2024/02/05 06:44:01;;;;;;;2.97;1.67;;;6.50;99.90;;;;;;4957502;28;20086;-79
2024/02/05 06:46:27;;;;;;;1.60;1.50;;;6.50;99.90;;;;;;4948040;28;20071;-78
2024/02/05 06:48:53;;;;;;;2.25;1.77;;;6.50;99.90;;;;;;4949645;28;20038;-78
2024/02/05 06:51:18;;;;;;;3.80;1.90;;;6.50;99.90;;;;;;4929635;29;20070;-78
2024/02/05 06:53:44;;;;;;;2.70;2.33;;;6.50;99.90;;;;;;4954739;28;20432;-78
2024/02/05 06:56:10;;;;;;;2.70;2.38;;;6.50;99.90;;;;;;4926559;29;20128;-78
2024/02/05 06:58:35;;;;;;;2.97;2.30;;;6.50;99.90;;;;;;4927681;29;20164;-79
2024/02/05 07:01:01;;;;;;;2.58;1.92;;;6.50;99.90;;;;;;4928620;29;20039;-78
2024/02/05 07:03:27;;;;;;;6.55;2.88;;;6.50;99.90;;;;;;4968768;28;20035;-78
2024/02/05 07:05:53;;;;;;;3.33;2.30;;;6.50;99.90;;;;;;4960942;28;20567;-79
2024/02/05 07:08:18;;;;;;;3.92;2.33;;;6.50;99.90;;;;;;4961206;28;20380;-78
2024/02/05 07:10:44;;;;;;;3.05;2.50;;;6.50;99.90;;;;;;4936358;29;20135;-78
2024/02/05 07:13:11;;;;;;;5.25;2.95;;;6.50;99.90;;;;;;4940595;29;20082;-78
2024/02/05 07:15:36;;;;;;;3.05;2.15;;;6.50;99.90;;;;;;4941028;29;20032;-77
2024/02/05 07:18:03;;;;;;;4.47;2.50;;;6.60;99.90;;;;;;4943871;29;20547;-78
2024/02/05 07:20:29;;;;;;;3.33;2.70;;;6.60;99.90;;;;;;4942145;29;20043;-78
2024/02/05 07:22:54;;;;;;;2.88;2.50;;;6.60;99.90;;;;;;4937051;28;20051;-78
2024/02/05 07:25:21;;;;;;;3.45;2.47;;;6.60;99.90;;;;;;4937763;29;20031;-78
2024/02/05 07:27:47;;;;;;;3.50;2.88;;;6.60;99.90;;;;;;4951794;28;20652;-78
2024/02/05 07:30:13;;;;;;;2.75;2.33;;;6.70;99.90;;;;;;4942469;29;20130;-79
2024/02/05 07:32:57;;;;;;;3.88;2.40;;;6.60;99.90;;;;;;4935678;29;20698;-78
2024/02/05 07:35:23;;;;;;;6.72;2.78;;;6.60;99.90;;;;;;4965653;28;20035;-78
2024/02/05 07:37:49;;;;;;;6.40;2.97;;;6.60;99.90;;;;;;4936342;29;20050;-77
2024/02/05 07:40:15;;;;;;;7.20;2.88;;;6.60;99.90;;;;;;4933036;29;20062;-78
2024/02/05 07:42:41;;;;;;;4.82;1.92;;;6.60;99.90;;;;;;4936614;29;20110;-78
2024/02/05 07:45:07;;;;;;;4.55;2.47;;;6.70;99.90;;;;;;4957155;28;20415;-78
2024/02/05 07:47:32;;;;;;;4.07;2.40;;;6.70;99.90;;;;;;4939936;29;20027;-78
2024/02/05 07:49:59;;;;;;;4.85;2.95;;;6.70;99.90;;;;;;4945673;29;20036;-78
2024/02/05 07:52:25;;;;;;;3.38;2.40;;;6.70;99.90;;;;;;4963352;28;20031;-79
2024/02/05 07:54:51;;;;;;;7.07;2.50;;;6.70;99.90;;;;;;4940089;29;20023;-79
2024/02/05 07:57:18;;;;;;;3.60;2.25;;;6.70;99.90;;;;;;4935785;29;20062;-79
2024/02/05 07:59:45;;;;;;;6.53;2.33;;;6.70;99.90;;;;;;4964806;28;20692;-78
2024/02/05 08:02:11;;;;;;;8.00;2.90;;;6.80;99.90;;;;;;4933535;29;20047;-79
2024/02/05 08:04:36;;;;;;;4.50;2.28;;;6.80;99.90;;;;;;4940272;29;20713;-79
2024/02/05 08:07:04;;;;;;;8.02;2.40;;;6.80;99.90;;;;;;4937568;29;20027;-79
2024/02/05 08:09:30;;;;;;;4.38;2.15;;;6.80;99.90;;;;;;4935821;29;20043;-79
2024/02/05 08:11:56;;;;;;;7.20;2.83;;;6.80;99.90;;;;;;4936313;29;20450;-79
2024/02/05 08:14:21;;;;;;;4.47;2.75;;;6.80;99.90;;;;;;4954289;28;20503;-79
2024/02/05 08:16:47;;;;;;;5.70;2.95;;;6.80;99.90;;;;;;4962553;28;20090;-78
2024/02/05 08:19:13;;;;;;;4.65;2.97;;;6.80;99.90;;;;;;4940001;29;20420;-79
2024/02/05 08:21:39;;;;;;;2.80;2.28;;;6.80;99.90;;;;;;4931908;29;20038;-79
2024/02/05 08:24:05;;;;;;;6.10;2.58;;;6.80;99.90;;;;;;4931796;29;20044;-78
2024/02/05 08:26:33;;;;;;;3.60;2.67;;;6.80;99.90;;;;;;4964498;28;20091;-78
2024/02/05 08:28:59;;;;;;;3.72;2.63;;;6.80;99.90;;;;;;4934095;29;20074;-78
2024/02/05 08:31:25;;;;;;;3.42;2.40;;;6.80;99.90;;;;;;4935062;29;20059;-78
2024/02/05 08:33:51;;;;;;;3.03;2.28;;;6.90;99.90;;;;;;4961758;28;20034;-78
2024/02/05 08:36:19;;;;;;;5.53;2.38;;;6.80;99.90;;;;;;4936284;29;20090;-79
2024/02/05 08:38:45;;;;;;;5.30;2.63;;;6.90;99.90;;;;;;4946822;28;20090;-78
2024/02/05 08:41:12;;;;;;;4.40;2.67;;;7.00;99.90;;;;;;4963826;28;20039;-78
2024/02/05 08:43:38;;;;;;;8.50;2.25;;;6.90;99.90;;;;;;4937466;29;20464;-79
2024/02/05 08:46:04;;;;;;;8.02;2.55;;;6.90;99.90;;;;;;4937401;29;20066;-78
2024/02/05 08:48:31;;;;;;;3.40;2.55;;;7.00;99.90;;;;;;4936502;29;20656;-79
2024/02/05 08:50:57;;;;;;;3.72;2.50;;;6.90;99.90;;;;;;4936176;29;20075;-79
2024/02/05 08:53:22;;;;;;;2.80;2.45;;;7.00;99.90;;;;;;4935797;29;20530;-79
2024/02/05 08:55:48;;;;;;;4.85;2.60;;;7.00;99.90;;;;;;4934714;29;20159;-79
2024/02/05 08:58:14;;;;;;;3.45;1.98;;;7.00;99.90;;;;;;4936593;29;20042;-78
2024/02/05 09:00:40;;;;;;;7.07;2.85;;;7.00;99.90;;;;;;4935271;29;20039;-78
2024/02/05 09:03:06;;;;;;;6.25;2.20;;;7.00;99.90;;;;;;4933497;29;20432;-78
2024/02/05 09:05:32;;;;;;;5.85;2.78;;;7.10;99.90;;;;;;4936025;29;20055;-78
2024/02/05 09:07:58;;;;;;;4.28;2.22;;;7.10;99.90;;;;;;4974765;28;20222;-78
2024/02/05 09:10:24;;;;;;;4.32;3.08;;;7.10;99.90;;;;;;4937975;29;20114;-78
2024/02/05 09:12:49;;;;;;;4.97;2.38;;;7.10;99.90;;;;;;4965796;28;20119;-78
2024/02/05 09:15:15;;;;;;;6.35;2.35;;;7.10;99.90;;;;;;4964816;28;20028;-78
2024/02/05 09:17:41;;;;;;;7.72;2.88;;;7.10;99.90;;;;;;4964906;28;20059;-78
2024/02/05 09:20:07;;;;;;;6.35;2.50;;;7.10;99.90;;;;;;4940954;29;20137;-78
2024/02/05 09:22:33;;;;;;;7.78;2.65;;;7.10;99.90;;;;;;4934246;29;20530;-78
2024/02/05 09:24:59;;;;;;;5.30;2.70;;;7.10;99.90;;;;;;4938129;29;20036;-78
2024/02/05 09:27:24;;;;;;;4.57;2.50;;;7.10;99.90;;;;;;4936904;28;20115;-78
2024/02/05 09:29:50;;;;;;;6.35;3.00;;;7.10;99.90;;;;;;4946723;29;20086;-78
2024/02/05 09:32:16;;;;;;;6.05;2.83;;;7.10;99.90;;;;;;4936213;29;20480;-78
2024/02/05 09:34:42;;;;;;;6.25;2.72;;;7.20;99.90;;;;;;4935213;29;20092;-78
2024/02/05 09:37:08;;;;;;;4.35;2.28;;;7.20;99.90;;;;;;4935269;29;20071;-78
2024/02/05 09:39:34;;;;;;;8.57;3.22;;;7.10;99.90;;;;;;4946393;29;20384;-78
2024/02/05 09:42:01;;;;;;;3.10;2.15;;;7.20;99.90;;;;;;4935441;28;20043;-78
2024/02/05 09:44:28;;;;;;;4.60;2.20;;;7.30;99.90;;;;;;4933650;29;20357;-78
2024/02/05 09:46:55;;;;;;;4.63;2.47;;;7.30;99.90;;;;;;4939338;29;20110;-78
2024/02/05 09:49:21;;;;;;;8.10;2.80;;;7.30;99.90;;;;;;4933615;29;20400;-78
2024/02/05 09:51:48;;;;;;;5.28;3.45;;;7.30;99.90;;;;;;4937496;29;20044;-78
2024/02/05 09:54:15;;;;;;;6.85;3.15;;;7.20;99.90;;;;;;4937047;29;20496;-78
2024/02/05 09:56:42;;;;;;;5.50;2.80;;;7.20;99.90;;;;;;4936254;29;20032;-78
2024/02/05 09:59:09;;;;;;;5.05;2.70;;;7.20;99.90;;;;;;4937429;29;20087;-77
2024/02/05 10:01:36;;;;;;;7.93;3.00;;;7.20;99.90;;;;;;4935483;28;20046;-78
2024/02/05 10:04:03;;;;;;;6.88;3.40;;;7.20;99.90;;;;;;4934605;29;20441;-78
2024/02/05 10:06:33;;;;;;;10.25;2.92;;;7.20;99.90;;;;;;4935701;29;20028;-78
2024/02/05 10:09:07;;;;;;;9.10;3.45;;;7.20;99.90;;;;;;4935988;29;20040;-78
2024/02/05 10:11:41;;;;;;;4.13;2.72;;;7.30;99.90;;;;;;4939370;28;20063;-78
2024/02/05 10:14:07;;;;;;;6.00;2.58;;;7.30;99.90;;;;;;4939200;29;20071;-78
2024/02/05 10:16:34;;;;;;;6.40;2.67;;;7.30;99.90;;;;;;4935299;29;20110;-77
2024/02/05 10:19:04;;;;;;;6.53;2.83;;;7.30;99.90;;;;;;4938067;29;20478;-77
2024/02/05 10:21:31;;;;;;;6.80;2.80;;;7.30;99.90;;;;;;4932963;29;20035;-78
2024/02/05 10:23:57;;;;;;;5.82;2.78;;;7.20;99.90;;;;;;4938896;29;20114;-77
2024/02/05 10:26:23;;;;;;;7.10;2.40;;;7.30;99.90;;;;;;4947992;28;20036;-77
2024/02/05 10:28:49;;;;;;;8.25;2.70;;;7.20;99.90;;;;;;4966450;28;20047;-78
2024/02/05 10:31:16;;;;;;;8.40;3.00;;;7.30;99.90;;;;;;4936982;29;20024;-78
2024/02/05 10:33:42;;;;;;;9.98;2.83;;;7.30;99.90;;;;;;4939094;29;20031;-78
2024/02/05 10:36:10;;;;;;;5.32;2.60;;;7.40;99.90;;;;;;4964685;28;20032;-77
2024/02/05 10:38:37;;;;;;;6.88;2.83;;;7.40;99.90;;;;;;4936816;29;20039;-77
2024/02/05 10:41:06;;;;;;;7.18;3.03;;;7.50;99.90;;;;;;4941244;29;20397;-78
2024/02/05 10:43:32;;;;;;;7.85;3.20;;;7.50;99.90;;;;;;4933277;29;20067;-77
2024/02/05 10:45:59;;;;;;;5.95;2.42;;;7.50;99.90;;;;;;4935031;29;20082;-78
2024/02/05 10:48:25;;;;;;;7.22;2.63;;;7.60;99.90;;;;;;4946857;29;20063;-78
2024/02/05 10:50:51;;;;;;;6.18;2.05;;;7.60;99.90;;;;;;4970470;28;20111;-77
2024/02/05 10:53:17;;;;;;;8.13;2.40;;;7.60;99.90;;;;;;4937476;29;20027;-78
2024/02/05 10:55:47;;;;;;;5.32;2.50;;;7.60;99.90;;;;;;4937152;29;20058;-77
2024/02/05 10:58:13;;;;;;;5.93;2.45;;;7.60;99.90;;;;;;4938616;29;20511;-77
2024/02/05 11:00:41;;;;;;;6.20;2.67;;;7.60;99.90;;;;;;4968039;28;20131;-77
2024/02/05 11:03:12;;;;;;;4.93;2.65;;;7.60;99.90;;;;;;4939901;29;20082;-77
2024/02/05 11:05:40;;;;;;;3.63;2.65;;;7.60;99.90;;;;;;4932489;29;20032;-77
2024/02/05 11:08:15;;;;;;;5.25;2.70;;;7.60;99.90;;;;;;4933938;29;20035;-77
2024/02/05 11:10:44;;;;;;;6.13;2.63;;;7.60;99.90;;;;;;4934724;29;20055;-79
2024/02/05 11:13:38;;;;;;;9.75;3.10;;;7.60;99.90;;;;;;4936804;29;20024;-78
2024/02/05 11:16:04;;;;;;;5.40;2.50;;;7.60;99.90;;;;;;4940373;28;20088;-79
2024/02/05 11:18:42;;;;;;;9.70;3.17;;;7.60;99.90;;;;;;4920254;29;20034;-77
2024/02/05 11:21:11;;;;;;;6.22;3.38;;;7.70;99.90;;;;;;4937792;29;20043;-79
2024/02/05 11:23:37;;;;;;;5.68;2.67;;;7.70;99.90;;;;;;4966622;28;20032;-77
2024/02/05 11:26:04;;;;;;;7.18;2.63;;;7.70;99.90;;;;;;4938734;29;20055;-77
2024/02/05 11:28:31;;;;;;;7.85;2.72;;;7.70;99.90;;;;;;4931917;29;20040;-77
2024/02/05 11:31:02;;;;;;;6.50;2.40;;;7.80;99.90;;;;;;4928511;29;20240;-78
2024/02/05 11:33:29;;;;;;;5.07;2.50;;;7.90;99.90;;;;;;4934153;29;20110;-78
2024/02/05 11:35:56;;;;;;;5.32;2.22;;;7.90;99.90;;;;;;4936026;29;20035;-77
2024/02/05 11:38:22;;;;;;;8.32;2.55;;;7.90;99.90;;;;;;4938131;29;20091;-77
2024/02/05 11:40:50;;;;;;;10.52;3.13;;;8.00;99.90;;;;;;4936664;29;20075;-78
2024/02/05 11:43:23;;;;;;;5.80;2.60;;;7.90;99.90;;;;;;4949685;29;20031;-77
2024/02/05 11:45:49;;;;;;;6.72;2.90;;;7.80;99.90;;;;;;4931387;29;20063;-78
2024/02/05 11:48:17;;;;;;;9.52;2.97;;;7.80;99.90;;;;;;4943306;29;20039;-78
2024/02/05 11:50:43;;;;;;;6.93;2.25;;;7.70;99.90;;;;;;4938760;29;20087;-78
2024/02/05 11:53:09;;;;;;;7.82;2.65;;;7.70;99.90;;;;;;4937394;29;20036;-78
2024/02/05 11:55:36;;;;;;;6.18;2.53;;;7.90;99.90;;;;;;4939652;28;20076;-78
2024/02/05 11:58:01;;;;;;;4.65;2.53;;;8.00;99.90;;;;;;4968825;28;20043;-77
2024/02/05 12:00:28;;;;;;;11.13;2.92;;;8.10;99.90;;;;;;4937618;29;20041;-76
2024/02/05 12:02:54;;;;;;;8.27;3.05;;;8.20;99.90;;;;;;4936284;29;20050;-76
2024/02/05 12:05:21;;;;;;;5.45;2.13;;;8.20;99.90;;;;;;4966988;28;20040;-78
2024/02/05 12:07:47;;;;;;;7.80;2.55;;;8.30;99.90;;;;;;4958220;28;20437;-78
2024/02/05 12:10:13;;;;;;;9.13;2.80;;;8.30;99.90;;;;;;4930312;29;20484;-78
2024/02/05 12:12:39;;;;;;;4.45;2.35;;;8.30;99.90;;;;;;4962240;28;20059;-78
2024/02/05 12:15:16;;;;;;;9.68;2.28;;;8.40;99.90;;;;;;4933856;29;20464;-77
2024/02/05 12:17:41;;;;;;;4.90;2.45;;;8.40;99.90;;;;;;4933259;29;20123;-77
2024/02/05 12:20:09;;;;;;;4.45;2.38;;;8.40;99.90;;;;;;4930776;29;20116;-78
2024/02/05 12:22:36;;;;;;;8.55;3.20;;;8.30;99.90;;;;;;4932755;29;20039;-77
2024/02/05 12:25:02;;;;;;;7.03;2.10;;;8.40;99.90;;;;;;4934146;29;20038;-78
2024/02/05 12:27:28;;;;;;;4.28;2.10;;;8.30;99.90;;;;;;4934065;29;20143;-77
2024/02/05 12:30:06;;;;;;;7.80;2.40;;;8.30;99.90;;;;;;4930776;29;20051;-78
2024/02/05 12:32:32;;;;;;;4.97;2.25;;;8.30;99.90;;;;;;4929961;29;20031;-77
2024/02/05 12:34:58;;;;;;;7.72;2.83;;;8.40;99.90;;;;;;4931158;29;20110;-77
2024/02/05 12:37:25;;;;;;;6.10;2.28;;;8.50;99.90;;;;;;4934096;29;20032;-78
2024/02/05 12:39:52;;;;;;;10.23;2.80;;;8.60;99.90;;;;;;4932380;29;20176;-78
2024/02/05 12:42:18;;;;;;;6.25;2.35;;;8.60;99.90;;;;;;4932381;29;20035;-77
2024/02/05 12:44:48;;;;;;;7.53;2.70;;;8.60;99.90;;;;;;4935645;29;20477;-77
2024/02/05 12:47:14;;;;;;;6.60;2.72;;;8.60;99.90;;;;;;4931296;29;20121;-77
2024/02/05 12:49:40;;;;;;;5.00;2.42;;;8.70;99.90;;;;;;4964266;28;20032;-77
2024/02/05 12:52:06;;;;;;;5.80;2.20;;;8.70;99.90;;;;;;4964684;28;20385;-77
2024/02/05 12:54:32;;;;;;;4.53;2.08;;;8.80;99.90;;;;;;4931943;29;20027;-78
2024/02/05 12:56:59;;;;;;;8.93;2.22;;;8.90;99.90;;;;;;4932273;29;20035;-77